Time;durP1;ratioP1;P1;durP2;ratioP2;P2;SDS_P1;SDS_P2;PMS_P1;PMS_P2;Temp;Humidity;BMP_temperature;BMP_pressure;BME280_temperature;BME280_humidity;BME280_pressure;Samples;Min_cycle;Max_cycle;Signal;HPM_P1;HPM_P2
2022/11/09 00:00:07;;;;;;;17.27;6.95;;;;;;;7.55;100.00;95219.56;5116885;28;20216;-79
2022/11/09 00:02:35;;;;;;;12.48;7.85;;;;;;;7.53;99.39;95219.03;5114947;28;20223;-79
2022/11/09 00:05:02;;;;;;;11.48;6.95;;;;;;;7.44;99.57;95221.63;5120154;27;20866;-79
2022/11/09 00:07:30;;;;;;;16.75;7.30;;;;;;;7.35;100.00;95217.19;5124465;28;20258;-79
2022/11/09 00:09:57;;;;;;;15.18;6.70;;;;;;;7.38;100.00;95228.16;5121947;27;20297;-79
2022/11/09 00:12:24;;;;;;;12.13;6.30;;;;;;;7.43;100.00;95219.22;5115220;27;20201;-79
2022/11/09 00:14:50;;;;;;;15.07;7.30;;;;;;;7.46;100.00;95226.72;5122853;27;20254;-79
2022/11/09 00:17:17;;;;;;;12.10;6.32;;;;;;;7.54;100.00;95231.44;5126746;27;20243;-80
2022/11/09 00:19:45;;;;;;;14.52;7.82;;;;;;;7.56;100.00;95228.44;5103309;28;20228;-80
2022/11/09 00:22:12;;;;;;;17.35;7.63;;;;;;;7.56;99.94;95223.06;5096393;28;20194;-78
2022/11/09 00:24:39;;;;;;;13.40;7.28;;;;;;;7.57;99.18;95220.06;5123708;27;20205;-79
2022/11/09 00:27:06;;;;;;;11.13;5.88;;;;;;;7.50;99.11;95230.44;5133871;27;20857;-79
2022/11/09 00:29:32;;;;;;;14.55;7.45;;;;;;;7.57;99.64;95230.84;5122517;27;20202;-79
2022/11/09 00:31:59;;;;;;;11.43;5.63;;;;;;;7.62;99.08;95228.09;5126819;27;20241;-79
2022/11/09 00:34:26;;;;;;;14.00;6.38;;;;;;;7.63;98.86;95223.50;5123649;27;20668;-79
2022/11/09 00:36:54;;;;;;;11.45;6.65;;;;;;;7.56;99.46;95226.56;5120145;27;20209;-79
2022/11/09 00:39:21;;;;;;;15.38;8.68;;;;;;;7.64;99.23;95223.22;5121847;27;20301;-79
2022/11/09 00:41:47;;;;;;;12.02;6.68;;;;;;;7.58;99.21;95224.38;5126002;27;20205;-79
2022/11/09 00:44:14;;;;;;;13.07;7.03;;;;;;;7.42;98.51;95229.19;5123405;27;20201;-79
2022/11/09 00:46:41;;;;;;;12.43;6.65;;;;;;;7.48;100.00;95227.22;5115031;27;20202;-78
2022/11/09 00:49:08;;;;;;;12.10;6.15;;;;;;;7.47;100.00;95220.25;5112242;28;20278;-79
2022/11/09 00:51:34;;;;;;;13.07;6.57;;;;;;;7.34;99.71;95227.16;5113005;28;20205;-79
2022/11/09 00:54:02;;;;;;;13.07;7.20;;;;;;;7.39;100.00;95218.19;5112368;28;20731;-79
2022/11/09 00:56:29;;;;;;;15.48;6.78;;;;;;;7.50;100.00;95219.66;5117585;27;20223;-79
2022/11/09 00:58:56;;;;;;;13.13;6.40;;;;;;;7.46;100.00;95211.34;5120231;27;20237;-79
2022/11/09 01:01:23;;;;;;;8.00;4.60;;;;;;;7.51;100.00;95215.88;5125662;27;20205;-79
2022/11/09 01:03:50;;;;;;;12.93;6.80;;;;;;;7.21;100.00;95213.63;5111836;28;20300;-79
2022/11/09 01:06:19;;;;;;;12.27;6.88;;;;;;;7.23;99.95;95214.13;5112187;28;20222;-80
2022/11/09 01:08:46;;;;;;;11.20;6.07;;;;;;;7.17;100.00;95220.69;5112183;28;20206;-79
2022/11/09 01:11:15;;;;;;;18.70;6.93;;;;;;;7.25;100.00;95222.72;5126179;27;20246;-79
2022/11/09 01:13:42;;;;;;;16.33;8.50;;;;;;;7.19;100.00;95213.09;5126283;27;20261;-79
2022/11/09 01:16:11;;;;;;;14.43;7.20;;;;;;;7.21;100.00;95229.78;5119245;27;20668;-80
2022/11/09 01:18:39;;;;;;;16.80;7.18;;;;;;;7.26;100.00;95218.91;5103909;27;20234;-79
2022/11/09 01:21:07;;;;;;;12.23;6.45;;;;;;;7.27;100.00;95220.53;5111851;28;20684;-80
2022/11/09 01:23:34;;;;;;;10.45;5.93;;;;;;;7.30;100.00;95225.34;5112953;27;20293;-79
2022/11/09 01:26:03;;;;;;;12.77;6.43;;;;;;;7.35;100.00;95214.50;5124015;27;20224;-79
2022/11/09 01:28:32;;;;;;;16.05;7.55;;;;;;;7.40;100.00;95219.78;5098082;28;20252;-80
2022/11/09 01:31:02;;;;;;;10.18;6.10;;;;;;;7.45;100.00;95212.44;5120790;27;20232;-80
2022/11/09 01:33:29;;;;;;;11.57;6.82;;;;;;;7.45;100.00;95222.41;5118307;27;20193;-80
2022/11/09 01:35:55;;;;;;;20.17;7.40;;;;;;;7.49;100.00;95218.84;5122858;27;20194;-80
2022/11/09 01:38:22;;;;;;;13.20;6.95;;;;;;;7.45;100.00;95217.03;5129003;27;20265;-80
2022/11/09 01:40:49;;;;;;;17.50;7.75;;;;;;;7.52;100.00;95216.66;5122611;27;20541;-79
2022/11/09 01:43:17;;;;;;;11.13;6.97;;;;;;;7.47;100.00;95209.44;5129164;27;20242;-79
2022/11/09 01:45:50;;;;;;;16.65;7.25;;;;;;;7.46;100.00;95211.34;5121231;27;20641;-79
2022/11/09 01:48:20;;;;;;;12.57;7.72;;;;;;;7.48;100.00;95211.06;5125027;27;20207;-80
2022/11/09 01:50:52;;;;;;;12.82;6.25;;;;;;;7.54;100.00;95209.88;5111801;28;20251;-79
2022/11/09 01:53:25;;;;;;;13.63;7.93;;;;;;;7.54;100.00;95209.88;5125301;27;20201;-79
2022/11/09 01:55:57;;;;;;;13.18;7.57;;;;;;;7.63;100.00;95208.13;5111833;28;20255;-80
2022/11/09 01:58:28;;;;;;;15.45;7.35;;;;;;;7.78;100.00;95205.19;5119579;27;20197;-80
2022/11/09 02:00:59;;;;;;;13.77;7.32;;;;;;;7.77;100.00;95203.56;5117698;27;20718;-80
2022/11/09 02:03:30;;;;;;;10.98;6.50;;;;;;;7.81;100.00;95204.56;5113232;27;20232;-78
2022/11/09 02:05:59;;;;;;;13.05;6.95;;;;;;;7.84;99.92;95206.69;5093114;28;20229;-79
2022/11/09 02:08:26;;;;;;;12.32;6.00;;;;;;;7.77;99.33;95208.97;5121542;27;20197;-79
2022/11/09 02:11:04;;;;;;;15.65;7.10;;;;;;;7.83;99.39;95207.78;5118177;27;20236;-79
2022/11/09 02:13:33;;;;;;;18.15;8.23;;;;;;;7.99;99.12;95210.22;5119712;27;20192;-79
2022/11/09 02:16:02;;;;;;;11.25;6.00;;;;;;;7.97;98.84;95201.59;5125068;27;20201;-79
2022/11/09 02:18:31;;;;;;;10.73;6.43;;;;;;;8.02;98.55;95210.44;5110992;28;20262;-79
2022/11/09 02:20:59;;;;;;;10.77;6.68;;;;;;;7.97;98.21;95217.78;5125223;27;20602;-79
2022/11/09 02:23:26;;;;;;;10.02;6.70;;;;;;;8.02;97.49;95210.44;5111284;28;20297;-80
2022/11/09 02:25:56;;;;;;;20.80;6.70;;;;;;;8.02;97.73;95205.03;5125125;27;20205;-79
2022/11/09 02:28:25;;;;;;;14.95;7.05;;;;;;;8.06;97.90;95216.81;5111098;27;20190;-79
2022/11/09 02:30:55;;;;;;;12.13;7.07;;;;;;;8.00;97.51;95217.22;5123658;27;20237;-80
2022/11/09 02:33:23;;;;;;;13.48;6.55;;;;;;;8.01;97.38;95213.41;5123866;27;20193;-79
2022/11/09 02:35:50;;;;;;;11.38;6.32;;;;;;;8.08;97.83;95219.22;5119085;27;20269;-79
2022/11/09 02:38:18;;;;;;;11.48;6.63;;;;;;;8.00;97.48;95212.63;5102121;27;20730;-79
2022/11/09 02:40:48;;;;;;;13.40;5.57;;;;;;;7.70;99.66;95219.31;5119290;27;20207;-79
2022/11/09 02:43:16;;;;;;;20.75;8.18;;;;;;;7.72;100.00;95227.13;5114657;27;20561;-82
2022/11/09 02:45:43;;;;;;;13.25;7.95;;;;;;;7.73;99.46;95217.94;5110504;28;20353;-79
2022/11/09 02:48:10;;;;;;;17.50;6.60;;;;;;;7.65;99.69;95216.72;5123305;27;20194;-80
2022/11/09 02:50:36;;;;;;;12.40;7.00;;;;;;;7.69;100.00;95223.09;5110915;28;20205;-79
2022/11/09 02:53:04;;;;;;;13.85;6.78;;;;;;;7.62;100.00;95221.91;5114991;27;20211;-79
2022/11/09 02:55:32;;;;;;;14.15;6.43;;;;;;;7.61;100.00;95229.19;5120207;27;20209;-79
2022/11/09 02:57:58;;;;;;;16.45;7.68;;;;;;;7.57;100.00;95220.06;5124384;27;20205;-80
2022/11/09 03:00:25;;;;;;;14.55;7.40;;;;;;;7.55;99.05;95216.88;5121819;27;20286;-79
2022/11/09 03:02:53;;;;;;;16.85;7.53;;;;;;;7.57;100.00;95225.47;5112155;27;20282;-79
2022/11/09 03:05:20;;;;;;;16.25;7.18;;;;;;;7.43;99.71;95224.59;5121076;27;20293;-79
2022/11/09 03:07:46;;;;;;;10.52;5.53;;;;;;;7.43;99.58;95225.41;5117064;27;20652;-80
2022/11/09 03:10:13;;;;;;;15.15;7.47;;;;;;;7.42;100.00;95225.69;5130487;27;20200;-80
2022/11/09 03:12:41;;;;;;;15.70;7.07;;;;;;;7.35;100.00;95220.69;5117159;27;20209;-78
2022/11/09 03:15:09;;;;;;;14.00;6.85;;;;;;;7.32;100.00;95223.16;5118715;27;20681;-80
2022/11/09 03:17:36;;;;;;;16.65;6.63;;;;;;;7.28;100.00;95222.13;5115404;27;20656;-80
2022/11/09 03:20:04;;;;;;;15.52;6.85;;;;;;;7.21;100.00;95227.09;5118283;27;20251;-80
2022/11/09 03:22:31;;;;;;;8.90;5.22;;;;;;;7.17;100.00;95226.88;5123595;27;20202;-79
2022/11/09 03:24:57;;;;;;;13.75;7.07;;;;;;;7.01;100.00;95226.28;5123080;27;20275;-81
2022/11/09 03:27:24;;;;;;;12.35;6.05;;;;;;;6.88;100.00;95224.28;5116965;27;20201;-79
2022/11/09 03:29:52;;;;;;;11.85;6.57;;;;;;;6.80;100.00;95216.06;5117710;27;20227;-79
2022/11/09 03:32:19;;;;;;;13.52;7.35;;;;;;;6.85;100.00;95219.47;5123374;28;20286;-79
2022/11/09 03:34:46;;;;;;;16.95;6.45;;;;;;;6.79;100.00;95217.97;5123053;28;20205;-79
2022/11/09 03:37:13;;;;;;;13.45;7.32;;;;;;;6.67;100.00;95222.97;5089414;28;20707;-79
2022/11/09 03:39:39;;;;;;;12.50;6.15;;;;;;;6.74;100.00;95228.78;5116650;28;20281;-79
2022/11/09 03:42:06;;;;;;;12.25;6.10;;;;;;;6.63;100.00;95225.41;5103211;28;20824;-80
2022/11/09 03:44:33;;;;;;;16.42;6.90;;;;;;;6.66;100.00;95237.50;5131719;27;20197;-79
2022/11/09 03:47:01;;;;;;;14.77;7.05;;;;;;;6.68;100.00;95240.72;5121471;27;20266;-79
2022/11/09 03:49:28;;;;;;;12.93;7.35;;;;;;;6.66;100.00;95232.13;5107034;27;20202;-79
2022/11/09 03:51:54;;;;;;;8.75;4.95;;;;;;;6.57;100.00;95233.81;5134830;27;20297;-79
2022/11/09 03:54:21;;;;;;;14.50;7.00;;;;;;;6.59;100.00;95231.66;5105984;27;20218;-80
2022/11/09 03:56:48;;;;;;;16.67;7.65;;;;;;;6.61;100.00;95234.88;5113678;28;20660;-80
2022/11/09 03:59:14;;;;;;;8.07;5.57;;;;;;;6.53;100.00;95232.81;5127425;27;20256;-80
2022/11/09 04:01:41;;;;;;;13.90;6.50;;;;;;;6.55;100.00;95241.41;5121855;27;20308;-80
2022/11/09 04:04:10;;;;;;;10.25;6.05;;;;;;;6.56;100.00;95238.41;5134394;27;20245;-79
2022/11/09 04:06:36;;;;;;;14.60;5.72;;;;;;;6.45;100.00;95241.50;5124536;27;20635;-80
2022/11/09 04:09:03;;;;;;;12.50;6.20;;;;;;;6.46;100.00;95241.22;5115030;27;20231;-80
2022/11/09 04:11:30;;;;;;;9.85;5.78;;;;;;;6.41;100.00;95241.31;5133907;27;20244;-80
2022/11/09 04:13:57;;;;;;;12.10;5.90;;;;;;;6.47;100.00;95236.66;5120163;27;20259;-80
2022/11/09 04:16:26;;;;;;;13.35;6.07;;;;;;;6.50;100.00;95236.09;5124605;27;20202;-80
2022/11/09 04:18:53;;;;;;;11.38;6.32;;;;;;;6.44;100.00;95240.72;5116176;27;20247;-80
2022/11/09 04:21:21;;;;;;;10.43;6.30;;;;;;;6.51;100.00;95237.69;5123987;27;20210;-80
2022/11/09 04:23:48;;;;;;;7.10;5.18;;;;;;;6.38;100.00;95231.91;5113261;28;20194;-80
2022/11/09 04:26:15;;;;;;;13.23;6.07;;;;;;;6.45;100.00;95230.75;5123417;27;20679;-80
2022/11/09 04:28:42;;;;;;;8.75;5.82;;;;;;;6.47;100.00;95233.94;5134093;27;20209;-81
2022/11/09 04:31:10;;;;;;;14.95;6.43;;;;;;;6.41;100.00;95234.03;5133890;27;20225;-78
2022/11/09 04:33:37;;;;;;;11.75;5.38;;;;;;;6.30;100.00;95237.09;5129831;27;20218;-80
2022/11/09 04:36:05;;;;;;;10.63;5.95;;;;;;;6.24;100.00;95232.88;5123782;27;20243;-80
2022/11/09 04:38:34;;;;;;;23.80;10.63;;;;;;;6.22;100.00;95230.47;5132988;27;20268;-80
2022/11/09 04:41:02;;;;;;;19.95;8.93;;;;;;;6.25;100.00;95227.22;5121705;27;20267;-80
2022/11/09 04:43:29;;;;;;;15.90;8.05;;;;;;;6.28;100.00;95237.41;5126605;27;20197;-80
2022/11/09 04:45:58;;;;;;;23.42;6.03;;;;;;;6.28;100.00;95237.41;5124776;27;20204;-80
2022/11/09 04:48:25;;;;;;;13.57;7.97;;;;;;;6.29;100.00;95238.19;5113994;27;20209;-80
2022/11/09 04:50:52;;;;;;;14.43;6.30;;;;;;;6.23;100.00;95244.72;5112241;27;20541;-78
2022/11/09 04:53:18;;;;;;;12.35;6.03;;;;;;;6.20;100.00;95250.66;5118514;27;20204;-78
2022/11/09 04:55:46;;;;;;;16.95;7.15;;;;;;;6.33;100.00;95245.41;5118523;27;20250;-78
2022/11/09 04:58:13;;;;;;;11.55;7.90;;;;;;;6.24;100.00;95240.94;5118948;27;20201;-79
2022/11/09 05:00:40;;;;;;;15.07;7.65;;;;;;;6.34;100.00;95251.59;5119914;27;20230;-79
2022/11/09 05:03:07;;;;;;;14.90;7.50;;;;;;;6.45;100.00;95245.00;5126414;27;20205;-80
2022/11/09 05:05:35;;;;;;;14.85;8.27;;;;;;;6.31;100.00;95258.34;5126111;27;20677;-77
2022/11/09 05:08:02;;;;;;;15.15;7.20;;;;;;;6.32;100.00;95254.56;5102719;27;20197;-78
2022/11/09 05:10:29;;;;;;;13.38;7.70;;;;;;;6.43;100.00;95250.66;5125581;27;20193;-78
2022/11/09 05:13:01;;;;;;;12.40;6.45;;;;;;;6.42;100.00;95254.44;5119662;27;20214;-81
2022/11/09 05:15:28;;;;;;;13.93;6.25;;;;;;;6.42;100.00;95254.44;5115840;27;20206;-80
2022/11/09 05:17:55;;;;;;;19.10;7.80;;;;;;;6.54;100.00;95258.66;5100396;28;20243;-80
2022/11/09 05:20:25;;;;;;;9.80;5.55;;;;;;;6.50;100.00;95260.31;5118401;27;20225;-80
2022/11/09 05:25:36;;;;;;;12.00;6.55;;;;;;;6.48;100.00;95257.09;5111814;28;20220;-79
2022/11/09 05:28:05;;;;;;;17.02;7.97;;;;;;;6.61;100.00;95261.78;5110838;28;20740;-79
2022/11/09 05:30:32;;;;;;;13.00;6.55;;;;;;;6.72;100.00;95269.44;5109959;28;20205;-79
2022/11/09 05:32:58;;;;;;;15.68;7.05;;;;;;;6.93;100.00;95270.03;5111607;28;20206;-80
2022/11/09 05:35:25;;;;;;;10.15;6.50;;;;;;;7.05;100.00;95266.91;5111341;28;20242;-80
2022/11/09 05:37:52;;;;;;;11.95;5.85;;;;;;;7.21;100.00;95272.91;5111445;27;20205;-79
2022/11/09 05:40:20;;;;;;;13.88;6.35;;;;;;;7.27;100.00;95266.34;5109893;28;20233;-80
2022/11/09 05:42:47;;;;;;;15.82;6.72;;;;;;;7.24;99.37;95267.75;5111503;28;20218;-79
2022/11/09 05:45:17;;;;;;;13.07;6.72;;;;;;;7.38;98.13;95273.22;5125385;27;20209;-80
2022/11/09 05:47:47;;;;;;;17.63;7.30;;;;;;;7.43;98.63;95265.03;5111240;27;20668;-80
2022/11/09 05:50:16;;;;;;;15.63;7.60;;;;;;;7.76;98.16;95277.47;5111162;28;20202;-80
2022/11/09 05:52:45;;;;;;;18.88;9.77;;;;;;;8.18;97.23;95275.72;5111139;28;20656;-80
2022/11/09 05:55:12;;;;;;;16.88;8.45;;;;;;;8.64;96.30;95277.59;5119519;27;20197;-79
2022/11/09 05:57:39;;;;;;;17.70;7.25;;;;;;;9.02;93.85;95278.25;5100780;27;20267;-79
2022/11/09 06:00:07;;;;;;;15.85;7.75;;;;;;;9.36;90.57;95273.16;5090472;28;20230;-80
2022/11/09 06:02:37;;;;;;;15.13;8.02;;;;;;;9.50;89.00;95284.75;5092481;28;20202;-80
2022/11/09 06:05:10;;;;;;;7.93;5.13;;;;;;;9.76;88.13;95282.28;5110547;28;20656;-80
2022/11/09 06:07:39;;;;;;;16.67;8.38;;;;;;;9.90;86.88;95293.84;5109702;28;20213;-79
2022/11/09 06:10:07;;;;;;;20.67;8.88;;;;;;;10.21;85.78;95280.41;5109721;27;20495;-80
2022/11/09 06:12:34;;;;;;;21.00;9.55;;;;;;;10.69;84.65;95285.13;5110747;27;20697;-80
2022/11/09 06:15:01;;;;;;;23.85;8.75;;;;;;;10.99;83.25;95287.00;5122057;27;20204;-80
2022/11/09 06:17:31;;;;;;;19.05;8.38;;;;;;;11.58;81.77;95283.97;5095608;27;20202;-79
2022/11/09 06:19:59;;;;;;;18.60;9.35;;;;;;;11.81;80.28;95288.16;5090468;28;20279;-79
2022/11/09 06:22:25;;;;;;;18.23;9.35;;;;;;;11.67;79.94;95285.56;5109022;28;20201;-80
2022/11/09 06:24:52;;;;;;;15.02;7.38;;;;;;;11.70;81.29;95289.56;5117656;27;20625;-79
2022/11/09 06:27:19;;;;;;;16.00;8.00;;;;;;;11.46;83.11;95294.66;5110360;28;20202;-80
2022/11/09 06:29:46;;;;;;;17.25;7.35;;;;;;;11.58;83.22;95294.81;5110835;28;20210;-80
2022/11/09 06:32:18;;;;;;;17.83;8.25;;;;;;;11.87;81.59;95286.91;5111776;27;20276;-80
2022/11/09 06:34:47;;;;;;;16.67;9.00;;;;;;;11.56;84.15;95284.28;5098477;28;20202;-80
2022/11/09 06:37:18;;;;;;;18.02;8.68;;;;;;;11.63;84.93;95289.22;5100304;28;20637;-81
2022/11/09 06:39:48;;;;;;;15.30;8.43;;;;;;;11.74;85.51;95290.53;5109596;28;20284;-81
2022/11/09 06:42:15;;;;;;;19.05;9.48;;;;;;;11.75;84.62;95284.78;5106869;28;20208;-81
2022/11/09 06:44:42;;;;;;;25.27;8.57;;;;;;;11.85;83.37;95289.13;5106453;28;20208;-81
2022/11/09 06:47:11;;;;;;;14.73;8.20;;;;;;;11.86;82.50;95282.59;5110738;28;20190;-81
2022/11/09 06:49:38;;;;;;;19.65;8.93;;;;;;;11.60;86.35;95287.16;5105552;28;20360;-80
2022/11/09 06:52:08;;;;;;;17.13;9.23;;;;;;;11.54;85.59;95283.00;5119302;27;20200;-81
2022/11/09 06:54:36;;;;;;;18.30;9.45;;;;;;;11.67;85.23;95287.47;5113143;27;20231;-82
2022/11/09 06:57:03;;;;;;;21.23;9.75;;;;;;;11.66;85.63;95285.88;5110511;27;20193;-80
2022/11/09 06:59:36;;;;;;;23.13;10.00;;;;;;;11.56;84.15;95286.19;5114742;27;20209;-82
2022/11/09 07:02:02;;;;;;;26.00;10.32;;;;;;;11.31;86.21;95285.84;5115315;27;20219;-79
2022/11/09 07:04:29;;;;;;;15.15;8.50;;;;;;;11.67;85.64;95292.91;5123692;27;20227;-80
2022/11/09 07:06:56;;;;;;;19.77;8.98;;;;;;;11.84;85.18;95287.53;5121514;27;20216;-80
2022/11/09 07:09:23;;;;;;;17.77;8.75;;;;;;;11.72;84.91;95290.06;5111952;27;20193;-81
2022/11/09 07:11:51;;;;;;;22.60;10.13;;;;;;;11.89;84.45;95283.88;5109520;28;20201;-81
2022/11/09 07:14:18;;;;;;;22.48;10.93;;;;;;;12.01;83.12;95282.09;5123007;27;20660;-80
2022/11/09 07:16:44;;;;;;;17.92;10.32;;;;;;;12.14;82.69;95282.25;5110316;28;20727;-81
2022/11/09 07:19:11;;;;;;;20.33;11.05;;;;;;;12.26;81.69;95280.47;5128871;27;20697;-81
2022/11/09 07:21:38;;;;;;;33.35;12.77;;;;;;;12.24;81.50;95279.19;5107692;27;20225;-80
2022/11/09 07:24:05;;;;;;;21.15;11.00;;;;;;;12.27;80.74;95278.56;5117655;28;20200;-79
2022/11/09 07:26:32;;;;;;;21.30;10.68;;;;;;;12.22;82.49;95281.44;5111144;27;20219;-80
2022/11/09 07:29:00;;;;;;;20.30;11.15;;;;;;;12.30;82.11;95272.50;5124427;27;20216;-80
2022/11/09 07:31:28;;;;;;;22.20;10.27;;;;;;;12.32;82.47;95275.66;5111618;28;20225;-81
2022/11/09 07:33:57;;;;;;;33.65;18.23;;;;;;;12.49;81.92;95281.06;5098078;28;20571;-79
2022/11/09 07:36:24;;;;;;;39.70;18.92;;;;;;;12.57;80.81;95276.75;5102188;28;20753;-78
2022/11/09 07:38:50;;;;;;;26.83;11.75;;;;;;;12.63;80.54;95270.81;5095149;28;20661;-80
2022/11/09 07:41:17;;;;;;;23.50;10.05;;;;;;;12.84;80.59;95270.91;5123201;28;20274;-81
2022/11/09 07:43:44;;;;;;;30.90;18.08;;;;;;;12.78;80.16;95273.00;5102175;27;20202;-77
2022/11/09 07:46:12;;;;;;;19.60;10.68;;;;;;;12.20;81.68;95273.59;5102632;28;20193;-79
2022/11/09 07:48:39;;;;;;;16.50;9.45;;;;;;;12.25;80.28;95278.88;5097178;28;20193;-77
2022/11/09 07:51:06;;;;;;;20.67;11.32;;;;;;;12.34;81.47;95284.28;5109598;28;20262;-79
2022/11/09 07:53:33;;;;;;;29.83;12.10;;;;;;;12.36;80.06;95276.63;5118003;28;20477;-79
2022/11/09 07:56:01;;;;;;;25.48;11.90;;;;;;;12.28;80.39;95274.72;5116030;28;20209;-78
2022/11/09 07:58:28;;;;;;;25.63;12.68;;;;;;;12.39;80.29;95271.34;5129952;27;20201;-79
2022/11/09 08:00:55;;;;;;;20.85;9.63;;;;;;;12.56;79.40;95275.16;5114091;27;20259;-79
2022/11/09 08:03:24;;;;;;;18.52;10.13;;;;;;;12.56;78.72;95283.31;5109460;28;20661;-81
2022/11/09 08:05:51;;;;;;;19.55;10.60;;;;;;;12.70;78.98;95275.75;5122988;28;20224;-78
2022/11/09 08:08:18;;;;;;;14.88;7.80;;;;;;;12.50;78.75;95277.22;5118308;28;20193;-78
2022/11/09 08:10:50;;;;;;;21.38;9.30;;;;;;;12.45;78.68;95280.13;5113434;27;20263;-80
2022/11/09 08:13:16;;;;;;;23.77;11.43;;;;;;;12.51;79.26;95278.84;5108873;27;20212;-82
2022/11/09 08:15:43;;;;;;;23.27;12.57;;;;;;;12.51;79.26;95276.13;5107968;28;20194;-82
2022/11/09 08:18:13;;;;;;;26.63;14.15;;;;;;;12.60;78.98;95287.75;5108858;27;20202;-81
2022/11/09 08:20:41;;;;;;;19.50;9.20;;;;;;;12.63;78.65;95281.66;5089179;28;20245;-83
2022/11/09 08:23:13;;;;;;;28.00;12.18;;;;;;;12.88;77.51;95271.03;5101064;28;20206;-81
2022/11/09 08:25:40;;;;;;;22.30;10.60;;;;;;;13.27;76.16;95273.44;5109214;28;20229;-81
2022/11/09 08:28:07;;;;;;;22.27;12.15;;;;;;;13.37;75.41;95275.81;5108431;28;20668;-81
2022/11/09 08:30:34;;;;;;;23.98;10.90;;;;;;;13.71;74.58;95276.69;5110555;28;20209;-80
2022/11/09 08:33:03;;;;;;;23.27;12.20;;;;;;;13.78;73.60;95275.06;5124938;27;20663;-81
2022/11/09 08:35:30;;;;;;;36.53;20.25;;;;;;;13.78;74.70;95276.97;5094481;27;20206;-83
2022/11/09 08:38:01;;;;;;;18.35;10.32;;;;;;;13.23;75.78;95277.97;5104442;28;20210;-83
2022/11/09 08:40:28;;;;;;;24.58;12.20;;;;;;;13.33;75.76;95276.78;5112233;28;20286;-82
2022/11/09 08:42:55;;;;;;;22.50;9.07;;;;;;;13.45;75.39;95277.66;5113062;28;20274;-82
2022/11/09 08:45:22;;;;;;;26.20;10.13;;;;;;;13.36;75.11;95276.13;5111678;28;20205;-80
2022/11/09 08:47:48;;;;;;;23.48;11.63;;;;;;;13.53;74.95;95274.06;5112710;28;20334;-82
2022/11/09 08:50:16;;;;;;;35.67;18.38;;;;;;;13.61;74.62;95271.63;5112242;28;20652;-82
2022/11/09 08:52:42;;;;;;;35.55;18.23;;;;;;;13.88;74.57;95273.84;5112292;28;20633;-82
2022/11/09 08:55:11;;;;;;;21.85;11.63;;;;;;;14.21;73.15;95273.91;5120056;27;20201;-82
2022/11/09 08:57:37;;;;;;;35.45;18.85;;;;;;;14.23;72.95;95266.97;5118992;27;20278;-82
2022/11/09 09:00:06;;;;;;;24.55;12.10;;;;;;;14.46;71.73;95269.38;5116455;27;20656;-82
2022/11/09 09:02:32;;;;;;;26.55;11.98;;;;;;;14.67;71.29;95264.63;5091749;28;20275;-82
2022/11/09 09:04:59;;;;;;;39.25;20.63;;;;;;;14.79;70.98;95267.38;5091377;28;20267;-81
2022/11/09 09:07:26;;;;;;;35.95;18.52;;;;;;;14.82;70.41;95261.25;5091782;28;20206;-81
2022/11/09 09:09:53;;;;;;;32.38;19.58;;;;;;;14.84;69.75;95264.44;5091718;28;20213;-80
2022/11/09 09:12:21;;;;;;;19.90;11.00;;;;;;;14.44;70.68;95271.63;5091766;28;20206;-79
2022/11/09 09:14:48;;;;;;;27.92;13.73;;;;;;;14.26;71.98;95265.50;5091832;28;20221;-81
2022/11/09 09:17:15;;;;;;;27.90;12.68;;;;;;;14.29;71.79;95269.50;5106154;28;20251;-82
2022/11/09 09:19:41;;;;;;;24.35;11.07;;;;;;;14.51;71.12;95255.50;5121302;27;20229;-82
2022/11/09 09:22:08;;;;;;;26.40;12.45;;;;;;;14.50;70.83;95262.88;5104341;27;20275;-82
2022/11/09 09:24:35;;;;;;;23.27;11.45;;;;;;;14.55;71.07;95259.94;5111619;28;20262;-82
2022/11/09 09:27:02;;;;;;;17.08;8.35;;;;;;;14.46;70.89;95258.47;5111525;28;20263;-79
2022/11/09 09:29:30;;;;;;;24.20;12.68;;;;;;;14.06;72.02;95258.16;5110883;28;20289;-81
2022/11/09 09:31:57;;;;;;;26.13;12.57;;;;;;;14.07;72.42;95255.13;5111534;28;20287;-81
2022/11/09 09:34:24;;;;;;;23.30;11.55;;;;;;;14.24;70.91;95256.84;5111817;28;20274;-81
2022/11/09 09:36:52;;;;;;;30.25;13.90;;;;;;;14.05;71.23;95256.56;5111403;28;20208;-81
2022/11/09 09:39:19;;;;;;;24.83;11.88;;;;;;;14.24;70.67;95257.66;5121305;27;20268;-82
2022/11/09 09:41:51;;;;;;;27.58;11.48;;;;;;;14.38;70.22;95246.47;5113359;27;20565;-82
2022/11/09 09:44:27;;;;;;;27.45;13.13;;;;;;;14.55;69.57;95240.88;5111868;28;20208;-83
2022/11/09 09:47:04;;;;;;;27.10;12.02;;;;;;;14.84;68.87;95237.16;5111019;28;20660;-81
2022/11/09 09:49:34;;;;;;;29.58;12.93;;;;;;;14.80;68.25;95236.25;5110603;28;20550;-82
2022/11/09 09:52:06;;;;;;;21.83;10.50;;;;;;;15.00;68.03;95233.78;5111235;28;20213;-82
2022/11/09 09:54:39;;;;;;;29.13;12.45;;;;;;;15.12;67.26;95228.31;5122141;27;20206;-82
2022/11/09 09:57:13;;;;;;;22.25;12.18;;;;;;;15.27;66.59;95233.09;5090963;28;20199;-81
2022/11/09 09:59:41;;;;;;;27.80;12.80;;;;;;;15.30;66.56;95226.94;5090387;28;20198;-82
2022/11/09 10:02:20;;;;;;;25.48;13.30;;;;;;;15.05;67.01;95225.34;5102998;28;20245;-82
2022/11/09 10:04:48;;;;;;;23.40;11.15;;;;;;;14.87;67.12;95220.13;5097777;28;20221;-81
2022/11/09 10:07:21;;;;;;;24.10;10.57;;;;;;;14.85;67.13;95200.56;5111491;28;20205;-82
2022/11/09 10:10:10;;;;;;;24.48;10.82;;;;;;;15.18;66.15;95225.00;5110878;28;20308;-81
2022/11/09 10:12:49;;;;;;;21.05;11.23;;;;;;;15.31;64.32;95212.13;5111270;28;20201;-82
2022/11/09 10:15:25;;;;;;;20.08;11.55;;;;;;;15.43;64.45;95209.41;5110783;28;20202;-82
2022/11/09 10:18:05;;;;;;;25.80;11.77;;;;;;;15.39;64.35;95211.22;5110578;28;20532;-81
2022/11/09 10:20:42;;;;;;;30.20;17.58;;;;;;;15.57;65.47;95207.16;5120787;27;20252;-81
2022/11/09 10:23:31;;;;;;;23.95;11.02;;;;;;;16.01;64.00;95196.28;5102219;28;20660;-82
2022/11/09 10:26:03;;;;;;;20.75;10.60;;;;;;;16.36;62.83;95193.75;5110563;28;20247;-82
2022/11/09 10:28:32;;;;;;;25.17;11.57;;;;;;;16.51;61.75;95200.38;5110303;28;20638;-81
2022/11/09 10:31:01;;;;;;;29.70;18.40;;;;;;;16.13;62.31;95198.97;5109995;28;20248;-82
2022/11/09 10:33:29;;;;;;;15.55;8.25;;;;;;;15.75;62.51;95204.13;5121857;27;20197;-83
2022/11/09 10:36:07;;;;;;;17.98;9.70;;;;;;;15.72;62.64;95199.34;5090452;28;20202;-83
2022/11/09 10:38:43;;;;;;;22.63;11.25;;;;;;;15.74;62.71;95195.13;5090584;28;20206;-81
2022/11/09 10:41:23;;;;;;;18.10;8.73;;;;;;;15.45;62.44;95189.94;5090069;28;20301;-81
2022/11/09 10:43:50;;;;;;;13.40;6.47;;;;;;;15.40;62.29;95190.97;5098027;28;20205;-82
2022/11/09 10:46:17;;;;;;;19.17;9.70;;;;;;;15.11;63.99;95183.06;5110351;28;20206;-81
2022/11/09 10:48:45;;;;;;;17.23;8.07;;;;;;;15.15;64.01;95181.25;5109505;28;20673;-82
2022/11/09 10:51:33;;;;;;;17.70;10.23;;;;;;;15.24;64.63;95168.25;5108964;28;20209;-82
2022/11/09 10:54:16;;;;;;;17.83;10.43;;;;;;;15.16;64.93;95177.38;5109847;28;20197;-80
2022/11/09 10:56:47;;;;;;;28.55;16.35;;;;;;;14.96;66.26;95176.34;5110055;28;20204;-81
2022/11/09 10:59:41;;;;;;;24.17;15.70;;;;;;;14.74;66.02;95172.16;5109779;28;20194;-82
2022/11/09 11:02:53;;;;;;;33.75;17.20;;;;;;;14.94;65.73;95173.97;5109652;28;20282;-82
2022/11/09 11:05:25;;;;;;;28.83;15.73;;;;;;;14.90;64.92;95164.88;5120011;27;20740;-82
2022/11/09 11:07:52;;;;;;;20.67;11.30;;;;;;;14.83;65.50;95170.09;5093347;27;20248;-81
2022/11/09 11:10:20;;;;;;;17.63;10.35;;;;;;;14.85;65.38;95161.59;5089425;28;20214;-82
2022/11/09 11:13:17;;;;;;;26.20;10.50;;;;;;;14.71;65.73;95167.38;5089728;28;20216;-82
2022/11/09 11:15:45;;;;;;;23.85;11.18;;;;;;;14.87;66.17;95160.13;5089241;28;20734;-82
2022/11/09 11:18:18;;;;;;;19.95;11.15;;;;;;;15.09;65.11;95163.50;5089674;28;20251;-81
2022/11/09 11:20:46;;;;;;;30.55;17.85;;;;;;;14.93;64.98;95158.72;5089057;28;20229;-84
2022/11/09 11:23:16;;;;;;;35.08;18.20;;;;;;;15.20;65.41;95165.41;5101641;28;20201;-83
2022/11/09 11:26:01;;;;;;;23.15;11.73;;;;;;;15.26;64.71;95149.59;5109624;28;20202;-82
2022/11/09 11:28:33;;;;;;;25.15;11.40;;;;;;;15.38;64.43;95152.31;5109890;28;20739;-83
2022/11/09 11:31:01;;;;;;;20.45;10.13;;;;;;;15.48;63.65;95140.91;5109304;28;20725;-82
2022/11/09 11:33:34;;;;;;;22.35;10.52;;;;;;;15.38;64.22;95146.84;5109574;28;20213;-83